createdAt,value
2022-08-26T00:14:59.042Z,26.50
2022-08-26T00:17:32.394Z,27.08
2022-08-26T00:20:14.742Z,26.70
2022-08-26T00:22:42.666Z,26.60
2022-08-26T00:25:12.123Z,26.10
2022-08-26T00:27:39.718Z,25.35
2022-08-26T00:30:12.223Z,27.30
2022-08-26T00:37:01.149Z,27.63
2022-08-26T00:39:28.892Z,28.60
2022-08-26T00:41:56.115Z,26.23
2022-08-26T00:47:01.398Z,28.50
2022-08-26T00:49:44.706Z,27.88
2022-08-26T00:52:16.379Z,28.33
2022-08-26T00:54:59.415Z,28.00
2022-08-26T00:57:50.787Z,28.35
2022-08-26T01:00:29.211Z,27.30
2022-08-26T01:02:57.646Z,28.40
2022-08-26T01:05:25.481Z,27.48
2022-08-26T01:07:52.629Z,31.45
2022-08-26T01:10:24.603Z,28.05
2022-08-26T01:13:01.568Z,28.15
2022-08-26T01:15:40.398Z,27.40
2022-08-26T01:18:10.337Z,29.52
2022-08-26T01:21:03.184Z,30.10
2022-08-26T01:23:37.771Z,29.70
2022-08-26T01:26:19.460Z,29.17
2022-08-26T01:32:43.008Z,30.30
2022-08-26T01:35:10.200Z,30.55
2022-08-26T01:37:40.359Z,31.92
2022-08-26T01:40:12.604Z,31.92
2022-08-26T01:42:42.181Z,31.65
2022-08-26T01:45:21.552Z,30.55
2022-08-26T01:47:49.986Z,33.08
2022-08-26T01:50:32.661Z,32.33
2022-08-26T01:53:34.291Z,32.45
2022-08-26T01:56:10.736Z,30.48
2022-08-26T01:58:42.519Z,29.45
2022-08-26T02:01:11.608Z,31.98
2022-08-26T02:04:10.165Z,34.25
2022-08-26T02:06:49.003Z,33.72
2022-08-26T02:09:22.412Z,35.63
2022-08-26T02:11:51.065Z,34.40
2022-08-26T02:14:28.174Z,34.35
2022-08-26T02:16:56.141Z,34.40
2022-08-26T02:19:32.030Z,33.72
2022-08-26T02:22:16.795Z,34.38
2022-08-26T02:25:08.155Z,33.95
2022-08-26T02:27:40.124Z,33.60
2022-08-26T02:30:25.149Z,33.63
2022-08-26T02:33:16.500Z,33.78
2022-08-26T02:35:46.730Z,31.90
2022-08-26T02:38:14.340Z,31.95
2022-08-26T02:40:43.879Z,32.03
2022-08-26T02:43:12.562Z,34.20
2022-08-26T02:45:41.153Z,31.95
2022-08-26T02:48:16.476Z,34.78
2022-08-26T02:55:41.920Z,32.50
2022-08-26T02:58:14.265Z,35.20
2022-08-26T03:00:53.257Z,32.88
2022-08-26T03:03:22.559Z,34.67
2022-08-26T03:05:54.240Z,32.90
2022-08-26T03:08:22.363Z,32.65
2022-08-26T03:10:50.152Z,33.25
2022-08-26T03:13:18.149Z,35.90
2022-08-26T03:15:45.917Z,33.47
2022-08-26T03:18:15.681Z,34.25
2022-08-26T03:23:12.539Z,34.17
2022-08-26T03:25:40.176Z,35.90
2022-08-26T03:28:09.527Z,42.70
2022-08-26T03:30:45.266Z,36.33
2022-08-26T03:36:35.113Z,34.85
2022-08-26T03:39:07.085Z,35.40
2022-08-26T03:41:36.770Z,34.20
2022-08-26T03:44:06.669Z,35.40
2022-08-26T03:46:34.251Z,34.67
2022-08-26T03:53:24.033Z,33.40
2022-08-26T03:55:51.929Z,34.63
2022-08-26T03:58:20.638Z,34.88
2022-08-26T04:00:48.335Z,34.08
2022-08-26T04:04:05.461Z,33.28
2022-08-26T04:07:42.047Z,35.05
2022-08-26T04:10:28.814Z,34.83
2022-08-26T04:12:58.856Z,36.72
2022-08-26T04:15:33.944Z,37.47
2022-08-26T04:18:01.508Z,36.40
2022-08-26T04:20:28.780Z,36.75
2022-08-26T04:22:58.680Z,36.65
2022-08-26T04:25:26.186Z,38.30
2022-08-26T04:27:53.352Z,38.88
2022-08-26T04:30:20.856Z,37.30
2022-08-26T04:32:49.269Z,36.53
2022-08-26T04:35:25.672Z,38.13
2022-08-26T04:37:58.521Z,37.70
2022-08-26T04:40:33.216Z,35.17
2022-08-26T04:43:00.549Z,34.92
2022-08-26T04:45:28.505Z,33.72
2022-08-26T04:47:58.846Z,35.47
2022-08-26T04:50:26.604Z,33.35
2022-08-26T04:56:16.670Z,33.65
2022-08-26T04:58:44.869Z,34.25
2022-08-26T05:01:33.234Z,32.72
2022-08-26T05:04:11.925Z,34.42
2022-08-26T05:06:48.479Z,35.70
2022-08-26T05:09:18.679Z,35.92
2022-08-26T05:11:48.421Z,35.92
2022-08-26T05:14:23.151Z,34.83
2022-08-26T05:16:59.489Z,36.13
2022-08-26T05:19:28.971Z,35.22
2022-08-26T05:24:23.750Z,33.03
2022-08-26T05:26:51.033Z,31.75
2022-08-26T05:29:18.594Z,34.35
2022-08-26T05:31:47.099Z,34.13
2022-08-26T05:34:14.917Z,35.35
2022-08-26T05:37:18.080Z,39.08
2022-08-26T05:45:17.169Z,35.72
2022-08-26T05:48:01.725Z,36.42
2022-08-26T05:50:29.287Z,37.70
2022-08-26T05:52:56.612Z,37.67
2022-08-26T05:55:23.885Z,35.08
2022-08-26T06:05:42.005Z,33.42
2022-08-26T06:08:11.365Z,33.80
2022-08-26T06:10:56.371Z,31.73
2022-08-26T06:13:26.860Z,32.13
2022-08-26T06:16:05.080Z,31.33
2022-08-26T06:18:46.040Z,30.10
2022-08-26T06:21:31.339Z,28.48
2022-08-26T06:27:16.446Z,26.75
2022-08-26T06:29:43.783Z,27.52
2022-08-26T06:32:12.824Z,25.23
2022-08-26T06:34:58.830Z,24.35
2022-08-26T06:37:31.714Z,25.90
2022-08-26T06:40:06.640Z,26.42
2022-08-26T06:42:36.458Z,23.73
2022-08-26T06:45:10.512Z,24.67
2022-08-26T06:47:38.380Z,23.42
2022-08-26T06:53:19.044Z,20.58
2022-08-26T06:55:47.128Z,21.45
2022-08-26T06:58:18.995Z,20.55
2022-08-26T07:00:49.439Z,20.75
2022-08-26T07:03:16.734Z,19.65
2022-08-26T07:05:45.388Z,20.40
2022-08-26T07:08:12.609Z,21.05
2022-08-26T07:10:40.559Z,19.92
2022-08-26T07:17:15.971Z,18.50
2022-08-26T07:19:43.682Z,19.77
2022-08-26T07:22:11.017Z,20.73
2022-08-26T07:24:42.364Z,18.85
2022-08-26T07:27:14.354Z,20.58
2022-08-26T07:29:43.510Z,18.88
2022-08-26T07:32:13.314Z,20.63
2022-08-26T07:34:41.769Z,18.40
2022-08-26T07:37:09.705Z,20.10
2022-08-26T07:39:37.762Z,19.15
2022-08-26T07:42:09.757Z,19.85
2022-08-26T07:44:49.760Z,19.63
2022-08-26T07:47:25.288Z,18.85
2022-08-26T07:49:56.636Z,17.05
2022-08-26T07:52:46.415Z,19.45
2022-08-26T07:55:23.099Z,19.38
2022-08-26T07:58:15.696Z,19.13
2022-08-26T08:01:45.040Z,16.10
2022-08-26T08:04:14.585Z,14.52
2022-08-26T08:06:43.846Z,14.93
2022-08-26T08:09:13.421Z,15.23
2022-08-26T08:11:46.817Z,14.95
2022-08-26T08:14:15.643Z,14.10
2022-08-26T08:16:46.835Z,14.20
2022-08-26T08:19:15.295Z,14.63
2022-08-26T08:26:25.095Z,14.50
2022-08-26T08:34:22.799Z,12.45
2022-08-26T08:36:53.224Z,12.77
2022-08-26T08:39:21.943Z,13.55
2022-08-26T08:42:08.333Z,13.77
2022-08-26T08:44:41.062Z,11.57
2022-08-26T08:48:12.869Z,12.85
2022-08-26T08:50:50.633Z,13.25
2022-08-26T08:53:57.492Z,10.95
2022-08-26T08:56:37.331Z,13.40
2022-08-26T08:59:12.691Z,11.38
2022-08-26T09:01:52.431Z,10.75
2022-08-26T09:04:51.802Z,11.93
2022-08-26T09:07:43.474Z,12.30
2022-08-26T09:10:29.257Z,11.85
2022-08-26T09:12:57.707Z,11.48
2022-08-26T09:15:39.822Z,11.38
2022-08-26T09:18:30.235Z,11.85
2022-08-26T09:21:10.503Z,12.07
2022-08-26T09:23:42.804Z,11.55
2022-08-26T09:26:41.269Z,10.20
2022-08-26T09:29:36.565Z,11.60
2022-08-26T09:32:24.873Z,11.23
2022-08-26T09:35:08.153Z,12.02
2022-08-26T09:37:58.846Z,10.25
2022-08-26T09:40:53.203Z,10.43
2022-08-26T09:56:27.829Z,11.68
2022-08-26T09:58:56.765Z,10.65
2022-08-26T10:01:52.270Z,10.88
2022-08-26T10:04:26.743Z,11.70
2022-08-26T10:07:00.700Z,11.55
2022-08-26T10:09:33.358Z,11.45
2022-08-26T10:12:10.810Z,12.25
2022-08-26T10:14:46.999Z,12.20
2022-08-26T10:17:33.566Z,11.48
2022-08-26T10:23:09.834Z,12.25
2022-08-26T10:25:55.216Z,11.40
2022-08-26T10:28:35.914Z,10.88
2022-08-26T10:31:12.716Z,11.85
2022-08-26T10:34:30.580Z,13.13
2022-08-26T10:37:14.725Z,10.98
2022-08-26T10:40:14.414Z,11.60
2022-08-26T10:43:11.029Z,11.70
2022-08-26T10:45:47.989Z,13.38
2022-08-26T10:48:24.907Z,14.63
2022-08-26T10:50:52.780Z,13.25
2022-08-26T10:53:24.854Z,13.43
2022-08-26T10:56:18.756Z,13.18
2022-08-26T10:59:15.437Z,12.88
2022-08-26T11:02:08.461Z,8.57
2022-08-26T11:04:48.193Z,6.53
2022-08-26T11:07:41.750Z,6.28
2022-08-26T11:10:21.403Z,6.93
2022-08-26T11:13:10.935Z,6.20
2022-08-26T11:15:45.138Z,6.30
2022-08-26T11:18:37.738Z,6.20
2022-08-26T11:21:50.690Z,6.50
2022-08-26T11:24:41.543Z,5.82
2022-08-26T11:27:12.380Z,6.72
2022-08-26T11:30:13.816Z,6.88
2022-08-26T11:32:45.473Z,7.65
2022-08-26T11:35:26.668Z,6.68
2022-08-26T11:38:22.135Z,5.63
2022-08-26T11:41:20.667Z,6.03
2022-08-26T11:43:53.249Z,5.82
2022-08-26T11:46:27.332Z,7.00
2022-08-26T11:49:02.842Z,7.10
2022-08-26T11:51:38.193Z,7.05
2022-08-26T11:54:30.493Z,6.65
2022-08-26T11:57:09.464Z,6.53
2022-08-26T11:59:42.382Z,6.75
2022-08-26T12:02:18.290Z,7.05
2022-08-26T12:04:49.804Z,6.85
2022-08-26T12:07:24.007Z,7.30
2022-08-26T12:09:56.603Z,4.97
2022-08-26T12:12:34.530Z,5.18
2022-08-26T12:15:10.273Z,4.53
2022-08-26T12:17:39.604Z,3.20
2022-08-26T12:21:12.995Z,4.03
2022-08-26T12:23:50.087Z,5.15
2022-08-26T12:26:34.781Z,6.70
2022-08-26T12:29:20.035Z,6.07
2022-08-26T12:31:48.493Z,5.75
2022-08-26T12:34:18.542Z,4.55
2022-08-26T12:36:55.430Z,4.70
2022-08-26T12:39:29.243Z,3.63
2022-08-26T12:42:01.363Z,4.25
2022-08-26T12:44:34.806Z,4.30
2022-08-26T12:47:16.676Z,4.70
2022-08-26T12:50:08.011Z,5.70
2022-08-26T12:52:44.317Z,5.70
2022-08-26T12:55:47.662Z,5.82
2022-08-26T12:58:35.397Z,6.28
2022-08-26T13:01:06.471Z,5.68
2022-08-26T13:03:33.712Z,7.07
2022-08-26T13:06:17.880Z,6.10
2022-08-26T13:08:49.259Z,5.43
2022-08-26T13:11:20.427Z,5.32
2022-08-26T13:13:52.007Z,4.97
2022-08-26T13:16:22.642Z,5.68
2022-08-26T13:18:57.867Z,5.70
2022-08-26T13:21:40.629Z,5.60
2022-08-26T13:24:13.501Z,5.60
2022-08-26T13:26:43.208Z,6.10
2022-08-26T13:29:11.942Z,6.72
2022-08-26T13:31:46.731Z,6.30
2022-08-26T13:34:19.041Z,6.40
2022-08-26T13:36:47.857Z,6.05
2022-08-26T13:39:15.802Z,6.05
2022-08-26T13:41:43.577Z,5.95
2022-08-26T13:44:10.999Z,5.40
2022-08-26T13:46:41.925Z,5.93
2022-08-26T13:49:10.777Z,6.45
2022-08-26T13:51:38.573Z,5.60
2022-08-26T13:54:06.339Z,6.07
2022-08-26T13:56:34.888Z,7.53
2022-08-26T13:59:03.162Z,6.10
2022-08-26T14:01:32.192Z,5.45
2022-08-26T14:03:59.745Z,6.22
2022-08-26T14:08:53.988Z,5.85
2022-08-26T14:11:21.531Z,5.40
2022-08-26T14:13:48.756Z,4.85
2022-08-26T14:16:22.766Z,5.97
2022-08-26T14:18:51.033Z,5.93
2022-08-26T14:21:18.773Z,5.88
2022-08-26T14:26:19.060Z,4.82
2022-08-26T14:28:58.948Z,4.72
2022-08-26T14:31:29.539Z,6.53
2022-08-26T14:34:03.476Z,6.95
2022-08-26T14:36:32.491Z,6.35
2022-08-26T14:39:06.628Z,5.72
2022-08-26T14:41:38.535Z,5.88
2022-08-26T14:44:10.670Z,5.88
2022-08-26T14:46:44.716Z,6.53
2022-08-26T14:49:12.539Z,6.97
2022-08-26T14:51:41.035Z,6.00
2022-08-26T14:54:12.871Z,7.88
2022-08-26T14:56:59.964Z,6.80
2022-08-26T14:59:32.886Z,7.05
2022-08-26T15:02:00.984Z,6.90
2022-08-26T15:04:28.738Z,6.40
2022-08-26T15:09:25.898Z,7.15
2022-08-26T15:11:53.819Z,7.28
2022-08-26T15:14:22.544Z,7.00
2022-08-26T15:16:53.179Z,6.90
2022-08-26T15:19:21.087Z,6.70
2022-08-26T15:21:49.333Z,7.35
2022-08-26T15:24:19.413Z,6.15
2022-08-26T15:26:47.468Z,6.80
2022-08-26T15:29:14.818Z,6.90
2022-08-26T15:31:42.892Z,6.07
2022-08-26T15:34:15.964Z,6.63
2022-08-26T15:36:46.268Z,6.30
2022-08-26T15:39:15.665Z,5.85
2022-08-26T15:41:43.511Z,5.90
2022-08-26T15:44:12.096Z,5.78
2022-08-26T15:46:46.512Z,5.80
2022-08-26T15:49:17.798Z,6.70
2022-08-26T15:51:47.909Z,5.97
2022-08-26T15:54:16.793Z,6.07
2022-08-26T15:56:44.870Z,6.40
2022-08-26T15:59:13.813Z,6.05
2022-08-26T16:06:53.894Z,7.15
2022-08-26T16:09:27.200Z,6.80
2022-08-26T16:11:56.178Z,7.53
2022-08-26T16:14:24.118Z,8.13
2022-08-26T16:21:32.589Z,8.05
2022-08-26T16:25:01.639Z,7.80
2022-08-26T16:27:29.620Z,7.85
2022-08-26T16:29:56.794Z,8.13
2022-08-26T16:32:31.361Z,7.65
2022-08-26T16:35:00.270Z,7.55
2022-08-26T16:38:35.032Z,7.07
2022-08-26T16:56:41.431Z,6.90
2022-08-26T16:59:19.699Z,7.07
2022-08-26T17:01:47.169Z,6.07
2022-08-26T17:04:14.449Z,6.25
2022-08-26T17:06:43.618Z,6.57
2022-08-26T17:09:10.837Z,6.43
2022-08-26T17:11:40.852Z,7.55
2022-08-26T17:14:08.394Z,7.07
2022-08-26T17:16:36.225Z,7.00
2022-08-26T17:21:35.545Z,7.03
2022-08-26T17:24:18.900Z,7.32
2022-08-26T17:26:50.054Z,6.38
2022-08-26T17:29:21.659Z,7.03
2022-08-26T17:32:29.272Z,6.40
2022-08-26T17:34:56.834Z,6.70
2022-08-26T17:37:24.371Z,10.48
2022-08-26T17:39:55.504Z,7.95
2022-08-26T17:42:31.439Z,7.50
2022-08-26T17:45:03.472Z,6.70
2022-08-26T17:47:31.663Z,7.43
2022-08-26T17:50:04.309Z,7.53
2022-08-26T17:52:32.996Z,7.18
2022-08-26T17:55:22.797Z,6.90
2022-08-26T17:57:53.458Z,6.72
2022-08-26T18:00:29.212Z,6.57
2022-08-26T18:03:19.584Z,7.45
2022-08-26T18:05:53.666Z,7.28
2022-08-26T18:08:21.170Z,7.88
2022-08-26T18:14:09.416Z,7.75
2022-08-26T18:16:47.248Z,7.22
2022-08-26T18:19:36.095Z,7.45
2022-08-26T18:22:09.009Z,8.18
2022-08-26T18:24:42.834Z,7.22
2022-08-26T18:27:26.725Z,6.75
2022-08-26T18:29:56.134Z,5.80
2022-08-26T18:32:23.994Z,6.10
2022-08-26T18:35:03.910Z,6.45
2022-08-26T18:37:50.565Z,6.93
2022-08-26T18:40:18.643Z,6.63
2022-08-26T18:42:49.368Z,5.57
2022-08-26T18:45:22.554Z,5.18
2022-08-26T18:50:17.463Z,5.93
2022-08-26T18:52:44.694Z,6.10
2022-08-26T18:55:12.083Z,6.07
2022-08-26T18:57:55.207Z,6.50
2022-08-26T19:00:22.675Z,5.57
2022-08-26T19:02:51.885Z,6.22
2022-08-26T19:05:35.311Z,5.82
2022-08-26T19:08:23.277Z,6.07
2022-08-26T19:10:51.612Z,6.20
2022-08-26T19:13:21.553Z,6.72
2022-08-26T19:15:50.316Z,6.47
2022-08-26T19:18:19.622Z,7.20
2022-08-26T19:20:47.935Z,7.13
2022-08-26T19:23:33.110Z,7.20
2022-08-26T19:26:04.050Z,7.13
2022-08-26T19:28:32.583Z,8.55
2022-08-26T19:31:00.137Z,8.48
2022-08-26T19:33:28.371Z,8.13
2022-08-26T19:35:57.568Z,8.55
2022-08-26T19:38:25.051Z,9.00
2022-08-26T19:40:55.107Z,10.10
2022-08-26T19:43:22.462Z,9.88
2022-08-26T19:45:50.342Z,10.15
2022-08-26T19:48:17.587Z,9.00
2022-08-26T19:50:46.067Z,9.45
2022-08-26T19:53:13.335Z,7.38
2022-08-26T19:55:40.507Z,7.68
2022-08-26T19:58:08.047Z,8.73
2022-08-26T20:00:39.626Z,8.57
2022-08-26T20:03:08.654Z,9.27
2022-08-26T20:05:40.413Z,9.80
2022-08-26T20:08:07.676Z,8.95
2022-08-26T20:10:39.268Z,9.55
2022-08-26T20:13:10.074Z,10.73
2022-08-26T20:15:37.385Z,11.65
2022-08-26T20:18:24.742Z,10.43
2022-08-26T20:21:10.871Z,10.35
2022-08-26T20:23:38.431Z,10.65
2022-08-26T20:26:08.653Z,11.27
2022-08-26T20:28:36.126Z,11.05
2022-08-26T20:31:03.584Z,11.30
2022-08-26T20:33:31.806Z,12.68
2022-08-26T20:36:15.431Z,11.73
2022-08-26T20:38:43.304Z,11.77
2022-08-26T20:41:11.093Z,11.85
2022-08-26T20:43:42.878Z,10.88
2022-08-26T20:46:17.403Z,11.95
2022-08-26T20:48:46.751Z,11.98
2022-08-26T20:51:16.514Z,11.13
2022-08-26T20:53:44.454Z,11.50
2022-08-26T20:56:13.477Z,11.52
2022-08-26T20:58:42.300Z,11.32
2022-08-26T21:01:18.022Z,11.70
2022-08-26T21:03:46.020Z,11.25
2022-08-26T21:06:15.043Z,11.38
2022-08-26T21:08:43.260Z,13.15
2022-08-26T21:11:12.006Z,11.40
2022-08-26T21:14:01.614Z,11.13
2022-08-26T21:16:28.625Z,11.82
2022-08-26T21:19:00.373Z,11.45
2022-08-26T21:21:28.704Z,11.63
2022-08-26T21:23:58.318Z,11.77
2022-08-26T21:26:27.041Z,12.18
2022-08-26T21:28:56.965Z,11.98
2022-08-26T21:31:27.014Z,11.77
2022-08-26T21:33:54.571Z,12.55
2022-08-26T21:36:23.427Z,13.52
2022-08-26T21:38:50.819Z,14.07
2022-08-26T21:41:22.211Z,12.88
2022-08-26T21:43:51.266Z,13.38
2022-08-26T21:46:22.135Z,12.35
2022-08-26T21:48:53.856Z,11.18
2022-08-26T21:51:23.685Z,11.90
2022-08-26T21:53:52.923Z,11.10
2022-08-26T21:56:22.038Z,10.43
2022-08-26T21:59:26.752Z,10.02
2022-08-26T22:02:01.710Z,11.70
2022-08-26T22:04:29.330Z,15.65
2022-08-26T22:07:00.242Z,15.85
2022-08-26T22:09:31.022Z,14.50
2022-08-26T22:12:00.609Z,12.35
2022-08-26T22:14:30.919Z,11.93
2022-08-26T22:17:00.024Z,10.43
2022-08-26T22:19:27.558Z,11.55
2022-08-26T22:21:55.706Z,12.52
2022-08-26T22:26:52.212Z,11.40
2022-08-26T22:29:20.075Z,10.23
2022-08-26T22:31:49.293Z,10.30
2022-08-26T22:34:17.427Z,10.10
2022-08-26T22:36:47.422Z,10.90
2022-08-26T22:39:16.906Z,9.93
2022-08-26T22:41:48.490Z,10.45
2022-08-26T22:44:17.223Z,11.07
2022-08-26T22:46:45.114Z,10.70
2022-08-26T22:49:16.345Z,11.05
2022-08-26T22:51:44.994Z,9.77
2022-08-26T22:54:13.257Z,10.32
2022-08-26T22:56:40.699Z,10.80
2022-08-26T22:59:08.992Z,10.63
2022-08-26T23:01:42.142Z,9.40
2022-08-26T23:04:10.536Z,10.10
2022-08-26T23:06:43.441Z,9.65
2022-08-26T23:09:18.216Z,10.15
2022-08-26T23:11:51.241Z,9.35
2022-08-26T23:14:19.771Z,9.48
2022-08-26T23:20:56.025Z,10.10
2022-08-26T23:23:23.741Z,10.32
2022-08-26T23:25:51.090Z,10.88
2022-08-26T23:28:18.555Z,11.48
2022-08-26T23:30:45.714Z,13.00
2022-08-26T23:33:17.155Z,13.38
2022-08-26T23:35:44.720Z,14.07
2022-08-26T23:38:16.630Z,15.88
2022-08-26T23:41:24.668Z,16.35
2022-08-26T23:43:51.986Z,14.85
2022-08-26T23:50:50.673Z,14.45
2022-08-26T23:53:21.715Z,13.88
2022-08-26T23:55:51.679Z,13.60
2022-08-26T23:58:20.962Z,13.05
